This is the latest recevied weather packets stored in our database for station/object OE-11149. If no packets are shown the sender has not sent any weather packets the latest 10 day(s).
| Time | Temp. | Humidity | Pressure | Rain* | Wind** | Luminosity | Snow |
|---|---|---|---|---|---|---|---|
| 1788095493 | 19.44° C | 54% | 853.5 hPa | 0 mm | - | 563 W/m² | - |
| 1788095120 | 18.89° C | 54% | 853.5 hPa | 0 mm | - | 629 W/m² | - |
| 1788094520 | 19.44° C | 53% | 853.4 hPa | 0 mm | - | 649 W/m² | - |
| 1788093693 | 19.44° C | 52% | 853.6 hPa | 0 mm | - | 570 W/m² | - |
| 1788093320 | 20.56° C | 53% | 853.4 hPa | 0 mm | - | 603 W/m² | - |
| 1788092720 | 18.89° C | 52% | 853.6 hPa | 0 mm | - | 556 W/m² | - |
| 1788091892 | 18.89° C | 50% | 853.5 hPa | 0 mm | - | 490 W/m² | - |
| 1788091520 | 20° C | 52% | 853.5 hPa | 0 mm | - | 669 W/m² | - |
| 1788090920 | 18.89° C | 53% | 853.6 hPa | 0 mm | - | 351 W/m² | - |
| 1788090092 | 18.89° C | 50% | 853.6 hPa | 0 mm | - | 616 W/m² | - |
| 1788089719 | 18.89° C | 50% | 853.6 hPa | 0 mm | - | 543 W/m² | - |
| 1788089120 | 18.89° C | 50% | 853.7 hPa | 0 mm | - | 662 W/m² | - |
| 1788088293 | 19.44° C | 50% | 853.7 hPa | 0 mm | - | 676 W/m² | - |
| 1788087920 | 18.89° C | 50% | 853.7 hPa | 0 mm | - | 576 W/m² | - |
| 1788087320 | 18.33° C | 50% | 853.8 hPa | 0 mm | - | 503 W/m² | - |
| 1788086493 | 18.89° C | 52% | 853.8 hPa | 0 mm | - | 662 W/m² | - |
| 1788086120 | 17.78° C | 53% | 854 hPa | 0 mm | - | 868 W/m² | - |
| 1788085520 | 18.33° C | 52% | 854.1 hPa | 0 mm | - | 841 W/m² | - |
| 1788084693 | 16.67° C | 55% | 854.2 hPa | 0 mm | - | 841 W/m² | - |
| 1788084320 | 16.67° C | 55% | 854.2 hPa | 0 mm | - | 788 W/m² | - |
| 1788083719 | 16.67° C | 54% | 854.2 hPa | 0 mm | - | 742 W/m² | - |
| 1788082893 | 17.78° C | 54% | 854.1 hPa | 0 mm | - | 715 W/m² | - |
| 1788082520 | 16.67° C | 56% | 854.2 hPa | 0 mm | - | 702 W/m² | - |
| 1788081919 | 16.67° C | 54% | 854.3 hPa | 0 mm | - | 689 W/m² | - |
| 1788081093 | 15.56° C | 57% | 854.4 hPa | 0 mm | - | 662 W/m² | - |
* Rain latest hour (hover to see other rain measurements)
** Current wind speed in m/s (hover to see current wind gust speed)